Time;durP1;ratioP1;P1;durP2;ratioP2;P2;SDS_P1;SDS_P2;PMS_P1;PMS_P2;Temp;Humidity;BMP_temperature;BMP_pressure;BME280_temperature;BME280_humidity;BME280_pressure;Samples;Min_cycle;Max_cycle;Signal;HPM_P1;HPM_P2
2022/03/20 00:01:02;;;;;;;;;;;5.50;62.60;;;;;;5053742;28;19920;-82
2022/03/20 00:03:28;;;;;;;;;;;5.50;62.50;;;;;;5056287;28;19913;-82
2022/03/20 00:05:53;;;;;;;;;;;5.50;62.40;;;;;;5058463;28;19917;-82
2022/03/20 00:08:19;;;;;;;;;;;5.30;63.20;;;;;;5056746;28;19927;-82
2022/03/20 00:10:46;;;;;;;;;;;5.40;62.20;;;;;;5056564;28;19917;-81
2022/03/20 00:13:12;;;;;;;;;;;5.50;62.10;;;;;;5056751;28;19928;-81
2022/03/20 00:15:42;;;;;;;;;;;5.30;62.40;;;;;;5059556;28;19920;-82
2022/03/20 00:18:08;;;;;;;;;;;5.30;62.40;;;;;;5059077;28;19924;-82
2022/03/20 00:20:35;;;;;;;;;;;5.30;62.20;;;;;;5060280;28;19923;-82
2022/03/20 00:23:08;;;;;;;;;;;5.30;62.40;;;;;;5060591;28;19919;-81
2022/03/20 00:25:44;;;;;;;;;;;;;;;;;;;;;
2022/03/20 00:28:30;;;;;;;;;;;5.20;62.00;;;;;;5089013;22;19996;-82
2022/03/20 00:31:07;;;;;;;;;;;5.10;62.10;;;;;;5040578;28;19932;-83
2022/03/20 00:34:00;;;;;;;;;;;5.00;62.40;;;;;;5028555;28;20370;-83
2022/03/20 00:39:07;;;;;;;;;;;5.10;61.60;;;;;;5020327;28;20002;-81
2022/03/20 00:41:38;;;;;;;;;;;5.10;61.60;;;;;;5005586;28;20404;-81
2022/03/20 00:44:07;;;;;;;;;;;5.10;61.50;;;;;;5039903;28;20012;-81
2022/03/20 00:46:34;;;;;;;;;;;5.10;61.30;;;;;;5028842;28;19909;-81
2022/03/20 00:49:00;;;;;;;;;;;5.10;61.40;;;;;;5023801;28;20308;-81
2022/03/20 00:51:35;;;;;;;;;;;5.00;61.50;;;;;;5042143;28;19913;-81
2022/03/20 00:54:04;;;;;;;;;;;4.90;61.30;;;;;;5027739;28;19928;-81
2022/03/20 00:56:33;;;;;;;;;;;5.00;61.00;;;;;;5040126;28;19988;-82
2022/03/20 00:58:59;;;;;;;;;;;5.00;61.00;;;;;;5020286;28;20015;-82
2022/03/20 01:01:28;;;;;;;;;;;4.90;61.20;;;;;;5018971;28;20281;-83
2022/03/20 01:03:54;;;;;;;;;;;4.80;61.40;;;;;;5018948;28;20004;-80
2022/03/20 01:06:21;;;;;;;;;;;4.80;61.40;;;;;;5041535;28;19940;-80
2022/03/20 01:08:46;;;;;;;;;;;4.70;61.70;;;;;;5011201;28;19913;-79
2022/03/20 01:11:12;;;;;;;;;;;4.70;61.30;;;;;;5026474;28;20145;-81
2022/03/20 01:13:38;;;;;;;;;;;4.70;61.60;;;;;;5007820;28;19925;-81
2022/03/20 01:16:04;;;;;;;;;;;4.60;61.20;;;;;;5010169;28;20063;-79
2022/03/20 01:18:29;;;;;;;;;;;4.70;61.00;;;;;;5037654;28;19913;-82
2022/03/20 01:20:55;;;;;;;;;;;4.60;61.20;;;;;;5015656;28;19917;-80
2022/03/20 01:23:21;;;;;;;;;;;4.70;60.90;;;;;;5053065;28;19913;-79
2022/03/20 01:25:50;;;;;;;;;;;4.60;61.00;;;;;;5029810;28;19919;-81
2022/03/20 01:28:16;;;;;;;;;;;4.70;61.30;;;;;;5027192;28;19967;-80
2022/03/20 01:30:42;;;;;;;;;;;4.60;61.10;;;;;;5023160;28;19914;-80
2022/03/20 01:33:08;;;;;;;;;;;4.60;61.10;;;;;;5011638;28;19920;-81
2022/03/20 01:35:35;;;;;;;;;;;4.60;61.40;;;;;;5026734;28;19917;-80
2022/03/20 01:38:01;;;;;;;;;;;4.50;61.80;;;;;;5026458;28;19928;-81
2022/03/20 01:40:26;;;;;;;;;;;4.40;62.00;;;;;;5012927;28;19913;-81
2022/03/20 01:42:52;;;;;;;;;;;4.50;61.60;;;;;;5017344;28;20547;-80
2022/03/20 01:45:19;;;;;;;;;;;4.50;61.60;;;;;;5045277;28;20392;-81
2022/03/20 01:47:47;;;;;;;;;;;4.50;61.40;;;;;;5026799;28;19909;-81
2022/03/20 01:50:23;;;;;;;;;;;4.50;61.30;;;;;;5021625;28;19913;-79
2022/03/20 01:52:50;;;;;;;;;;;4.50;61.60;;;;;;5019229;28;20342;-81
2022/03/20 01:55:16;;;;;;;;;;;4.50;61.30;;;;;;5044815;28;19920;-81
2022/03/20 01:57:44;;;;;;;;;;;4.50;61.40;;;;;;5043221;28;19909;-80
2022/03/20 02:00:11;;;;;;;;;;;4.50;61.30;;;;;;5029885;28;19936;-82
2022/03/20 02:02:36;;;;;;;;;;;4.50;61.10;;;;;;5021146;28;19910;-81
2022/03/20 02:05:02;;;;;;;;;;;4.40;61.30;;;;;;5021298;28;19913;-82
2022/03/20 02:07:28;;;;;;;;;;;4.40;61.60;;;;;;5010682;28;19913;-81
2022/03/20 02:09:53;;;;;;;;;;;4.40;61.20;;;;;;5030285;28;19996;-81
2022/03/20 02:12:19;;;;;;;;;;;4.40;61.30;;;;;;5041480;28;19917;-80
2022/03/20 02:14:44;;;;;;;;;;;4.40;61.30;;;;;;5016501;28;19949;-81
2022/03/20 02:17:10;;;;;;;;;;;4.50;60.90;;;;;;5023781;28;20384;-82
2022/03/20 02:19:36;;;;;;;;;;;4.50;60.70;;;;;;5027914;28;19909;-82
2022/03/20 02:22:03;;;;;;;;;;;4.40;60.60;;;;;;5030650;28;19925;-82
2022/03/20 02:24:29;;;;;;;;;;;4.40;60.20;;;;;;5001133;28;20093;-82
2022/03/20 02:27:11;;;;;;;;;;;4.40;60.40;;;;;;5004878;28;20452;-82
2022/03/20 02:29:38;;;;;;;;;;;4.40;60.10;;;;;;4998890;28;19997;-81
2022/03/20 02:32:04;;;;;;;;;;;4.40;60.10;;;;;;5028128;28;19909;-82
2022/03/20 02:34:31;;;;;;;;;;;4.30;60.60;;;;;;5005119;28;20381;-82
2022/03/20 02:36:57;;;;;;;;;;;4.30;60.40;;;;;;5032979;28;19913;-81
2022/03/20 02:39:22;;;;;;;;;;;4.30;60.60;;;;;;5010605;28;20412;-81
2022/03/20 02:41:49;;;;;;;;;;;4.40;60.40;;;;;;5021335;28;19938;-80
2022/03/20 02:44:14;;;;;;;;;;;4.30;60.70;;;;;;5038201;28;19913;-82
2022/03/20 02:46:40;;;;;;;;;;;4.30;60.70;;;;;;5005292;28;19913;-80
2022/03/20 02:49:06;;;;;;;;;;;4.30;60.90;;;;;;5022205;28;20018;-81
2022/03/20 02:51:32;;;;;;;;;;;4.30;61.70;;;;;;5015156;28;19909;-81
2022/03/20 02:53:57;;;;;;;;;;;4.30;60.30;;;;;;5015812;28;20208;-80
2022/03/20 02:56:23;;;;;;;;;;;4.40;60.00;;;;;;5011613;28;19924;-81
2022/03/20 02:58:49;;;;;;;;;;;4.30;60.00;;;;;;5001987;28;19940;-83
2022/03/20 03:01:16;;;;;;;;;;;4.40;59.30;;;;;;5014412;28;19921;-80
2022/03/20 03:03:45;;;;;;;;;;;4.40;59.20;;;;;;4998964;28;19913;-80
2022/03/20 03:06:13;;;;;;;;;;;4.40;59.20;;;;;;4996924;28;20055;-81
2022/03/20 03:11:23;;;;;;;;;;;4.40;58.40;;;;;;5014788;28;20400;-80
2022/03/20 03:13:48;;;;;;;;;;;4.40;59.00;;;;;;4995836;28;19918;-80
2022/03/20 03:16:15;;;;;;;;;;;4.40;59.00;;;;;;5016337;28;19925;-81
2022/03/20 03:18:41;;;;;;;;;;;4.40;58.30;;;;;;5027720;28;19913;-79
2022/03/20 03:21:10;;;;;;;;;;;4.40;58.70;;;;;;5005184;28;19923;-81
2022/03/20 03:23:38;;;;;;;;;;;4.40;57.40;;;;;;5020011;28;19936;-81
2022/03/20 03:26:06;;;;;;;;;;;4.40;57.90;;;;;;5038281;28;20300;-82
2022/03/20 03:28:36;;;;;;;;;;;4.30;57.80;;;;;;5003471;28;19914;-82
2022/03/20 03:31:05;;;;;;;;;;;4.40;57.70;;;;;;5008214;28;20099;-81
2022/03/20 03:33:31;;;;;;;;;;;4.30;57.30;;;;;;5016725;28;19921;-81
2022/03/20 03:35:57;;;;;;;;;;;4.40;57.30;;;;;;5022683;28;19921;-82
2022/03/20 03:38:23;;;;;;;;;;;4.40;57.80;;;;;;5008327;28;19925;-82
2022/03/20 03:40:49;;;;;;;;;;;4.30;56.90;;;;;;5014519;28;20154;-82
2022/03/20 03:43:17;;;;;;;;;;;4.40;56.90;;;;;;5028119;28;19965;-83
2022/03/20 03:45:43;;;;;;;;;;;4.40;56.40;;;;;;5006186;28;19985;-80
2022/03/20 03:48:09;;;;;;;;;;;4.40;55.90;;;;;;5023679;28;19920;-81
2022/03/20 03:50:36;;;;;;;;;;;4.40;56.30;;;;;;5001656;28;19917;-81
2022/03/20 03:53:03;;;;;;;;;;;4.30;57.20;;;;;;5036537;28;19909;-81
2022/03/20 03:55:30;;;;;;;;;;;4.30;56.30;;;;;;5043533;28;19939;-79
2022/03/20 03:57:55;;;;;;;;;;;4.30;57.10;;;;;;5030379;28;19953;-81
2022/03/20 04:00:21;;;;;;;;;;;4.30;56.60;;;;;;5015764;28;19940;-81
2022/03/20 04:02:47;;;;;;;;;;;4.30;56.60;;;;;;5011321;28;19976;-81
2022/03/20 04:05:17;;;;;;;;;;;4.30;55.50;;;;;;5008243;28;20013;-81
2022/03/20 04:07:44;;;;;;;;;;;4.30;55.60;;;;;;5009716;28;20266;-82
2022/03/20 04:10:09;;;;;;;;;;;4.40;54.70;;;;;;5009475;28;19913;-81
2022/03/20 04:12:36;;;;;;;;;;;4.40;53.80;;;;;;5009119;28;19910;-81
2022/03/20 04:15:02;;;;;;;;;;;4.40;55.30;;;;;;5018918;28;19940;-82
2022/03/20 04:17:30;;;;;;;;;;;4.30;55.00;;;;;;5013157;28;19920;-81
2022/03/20 04:19:59;;;;;;;;;;;4.30;55.70;;;;;;5025595;28;19917;-81
2022/03/20 04:22:25;;;;;;;;;;;4.30;55.80;;;;;;5018135;28;19969;-81
2022/03/20 04:24:51;;;;;;;;;;;4.20;55.50;;;;;;5019067;28;19916;-80
2022/03/20 04:27:17;;;;;;;;;;;4.30;54.30;;;;;;5054438;28;19971;-81
2022/03/20 04:29:42;;;;;;;;;;;4.30;55.00;;;;;;5016861;28;19949;-81
2022/03/20 04:32:09;;;;;;;;;;;4.30;54.70;;;;;;5012387;28;19914;-81
2022/03/20 04:34:35;;;;;;;;;;;4.20;55.40;;;;;;5029679;28;19952;-83
2022/03/20 04:37:04;;;;;;;;;;;4.30;54.30;;;;;;5014901;28;19925;-82
2022/03/20 04:39:30;;;;;;;;;;;4.30;55.00;;;;;;5020205;28;20079;-84
2022/03/20 04:41:55;;;;;;;;;;;4.30;54.40;;;;;;5008283;28;20016;-82
2022/03/20 04:44:22;;;;;;;;;;;4.30;54.10;;;;;;5013446;28;19967;-84
2022/03/20 04:46:47;;;;;;;;;;;4.30;54.30;;;;;;5005435;28;19917;-83
2022/03/20 05:00:10;;;;;;;;;;;4.10;55.00;;;;;;5024625;28;19980;-79
2022/03/20 05:02:36;;;;;;;;;;;4.10;54.80;;;;;;5028880;28;19920;-81
2022/03/20 05:05:01;;;;;;;;;;;4.10;54.40;;;;;;5021640;28;19976;-79
2022/03/20 05:07:27;;;;;;;;;;;4.10;54.40;;;;;;5017842;28;19913;-80
2022/03/20 05:15:21;;;;;;;;;;;4.00;54.80;;;;;;5045288;28;21792;-80
2022/03/20 05:17:46;;;;;;;;;;;4.10;54.00;;;;;;5015025;28;19913;-80
2022/03/20 05:20:12;;;;;;;;;;;4.10;54.00;;;;;;5002052;28;20437;-83
2022/03/20 05:22:38;;;;;;;;;;;4.00;54.60;;;;;;5005346;28;19913;-82
2022/03/20 05:25:06;;;;;;;;;;;3.80;54.70;;;;;;5002187;28;19913;-81
2022/03/20 05:27:31;;;;;;;;;;;3.80;54.50;;;;;;5021271;28;19918;-81
2022/03/20 05:29:57;;;;;;;;;;;3.70;54.90;;;;;;5013211;28;20546;-82
2022/03/20 05:32:23;;;;;;;;;;;3.60;54.50;;;;;;5021349;28;19909;-82
2022/03/20 05:34:48;;;;;;;;;;;3.60;54.80;;;;;;5016557;28;19921;-80
2022/03/20 05:37:14;;;;;;;;;;;3.60;54.60;;;;;;5002477;28;19941;-82
2022/03/20 05:39:40;;;;;;;;;;;3.60;54.50;;;;;;5018732;28;19953;-80
2022/03/20 05:42:05;;;;;;;;;;;3.60;55.20;;;;;;5019989;28;20426;-82
2022/03/20 05:44:32;;;;;;;;;;;3.50;55.20;;;;;;5003659;28;19917;-84
2022/03/20 05:46:59;;;;;;;;;;;3.50;55.20;;;;;;5020212;28;19968;-82
2022/03/20 05:49:25;;;;;;;;;;;3.50;55.40;;;;;;5003709;28;19909;-82
2022/03/20 05:51:52;;;;;;;;;;;3.50;54.90;;;;;;5003968;28;20393;-82
2022/03/20 05:54:17;;;;;;;;;;;3.40;55.20;;;;;;5001387;28;20408;-82
2022/03/20 05:59:27;;;;;;;;;;;3.50;55.10;;;;;;5009896;28;20345;-82
2022/03/20 06:01:53;;;;;;;;;;;3.40;54.90;;;;;;5021186;28;20007;-83
2022/03/20 06:04:19;;;;;;;;;;;3.40;55.00;;;;;;5002997;28;19959;-82
2022/03/20 06:06:45;;;;;;;;;;;3.30;55.20;;;;;;5004764;28;20239;-81
2022/03/20 06:09:11;;;;;;;;;;;3.40;55.00;;;;;;5041023;28;19952;-81
2022/03/20 06:11:36;;;;;;;;;;;3.30;55.10;;;;;;5025529;28;19909;-81
2022/03/20 06:14:03;;;;;;;;;;;3.40;54.60;;;;;;5019025;28;19913;-81
2022/03/20 06:16:28;;;;;;;;;;;3.50;54.90;;;;;;5003792;28;19913;-83
2022/03/20 06:18:57;;;;;;;;;;;3.50;54.80;;;;;;5005219;28;20318;-83
2022/03/20 06:21:23;;;;;;;;;;;3.50;54.30;;;;;;5008367;28;20012;-82
2022/03/20 06:23:49;;;;;;;;;;;3.50;54.70;;;;;;5011092;28;19917;-81
2022/03/20 06:26:16;;;;;;;;;;;3.60;54.50;;;;;;5026016;28;19920;-82
2022/03/20 06:28:43;;;;;;;;;;;3.60;54.10;;;;;;5013382;28;20502;-81
2022/03/20 06:31:12;;;;;;;;;;;3.60;54.30;;;;;;5021484;28;19974;-82
2022/03/20 06:33:40;;;;;;;;;;;3.70;53.70;;;;;;5001192;28;19978;-82
2022/03/20 06:36:07;;;;;;;;;;;3.80;54.00;;;;;;5013113;28;19940;-82
2022/03/20 06:38:34;;;;;;;;;;;3.80;52.90;;;;;;5004743;28;20004;-81
2022/03/20 06:41:00;;;;;;;;;;;3.80;53.60;;;;;;5020070;28;20270;-81
2022/03/20 06:43:25;;;;;;;;;;;3.80;54.00;;;;;;5016125;28;19968;-81
2022/03/20 06:45:53;;;;;;;;;;;3.80;53.60;;;;;;5026508;28;19936;-82
2022/03/20 06:48:18;;;;;;;;;;;3.80;53.00;;;;;;5020590;28;19961;-81
2022/03/20 06:50:44;;;;;;;;;;;3.80;53.70;;;;;;5001498;28;19953;-82
2022/03/20 06:53:11;;;;;;;;;;;3.80;54.10;;;;;;5017133;28;19968;-81
2022/03/20 06:55:37;;;;;;;;;;;3.80;54.90;;;;;;5030373;28;19911;-80
2022/03/20 06:58:06;;;;;;;;;;;3.90;54.40;;;;;;5027047;28;19928;-82
2022/03/20 07:00:32;;;;;;;;;;;3.90;53.70;;;;;;5028984;28;19936;-81
2022/03/20 07:03:03;;;;;;;;;;;4.00;53.00;;;;;;5010047;28;19917;-81
2022/03/20 07:05:28;;;;;;;;;;;4.10;53.90;;;;;;5009443;28;19913;-81
2022/03/20 07:07:54;;;;;;;;;;;4.10;53.20;;;;;;5033373;28;20660;-81
2022/03/20 07:10:23;;;;;;;;;;;4.10;54.10;;;;;;5022174;28;19968;-81
2022/03/20 07:13:48;;;;;;;;;;;4.20;53.80;;;;;;5014262;28;20305;-81
2022/03/20 07:15:38;;;;;;;;;;;4.20;53.30;;;;;;5018456;28;20071;-79
2022/03/20 07:18:04;;;;;;;;;;;4.20;53.60;;;;;;5001724;28;19971;-82
2022/03/20 07:20:30;;;;;;;;;;;4.20;53.70;;;;;;5010899;28;19913;-79
2022/03/20 07:22:55;;;;;;;;;;;4.20;52.90;;;;;;4997953;28;20394;-81
2022/03/20 07:30:49;;;;;;;;;;;4.30;54.40;;;;;;5026374;28;19921;-83
2022/03/20 07:33:15;;;;;;;;;;;4.30;54.10;;;;;;5011885;28;19913;-80
2022/03/20 07:35:42;;;;;;;;;;;4.20;53.90;;;;;;5034911;28;19921;-80
2022/03/20 07:38:07;;;;;;;;;;;4.20;53.90;;;;;;5034914;28;19909;-81
2022/03/20 07:40:33;;;;;;;;;;;4.40;53.30;;;;;;5039377;28;19949;-80
2022/03/20 07:42:58;;;;;;;;;;;4.40;53.90;;;;;;5028038;28;20012;-82
2022/03/20 07:45:24;;;;;;;;;;;4.40;53.30;;;;;;5021225;28;20431;-82
2022/03/20 07:47:50;;;;;;;;;;;4.40;54.60;;;;;;5006255;28;19920;-81
2022/03/20 07:50:15;;;;;;;;;;;4.30;53.20;;;;;;5016627;28;19921;-83
2022/03/20 07:52:41;;;;;;;;;;;4.30;53.40;;;;;;5040668;28;19917;-81
2022/03/20 07:55:07;;;;;;;;;;;4.20;53.40;;;;;;5008631;28;19941;-85
2022/03/20 07:57:38;;;;;;;;;;;4.20;54.70;;;;;;5002064;28;19922;-81
2022/03/20 08:00:04;;;;;;;;;;;4.30;53.70;;;;;;5014485;28;20097;-81
2022/03/20 08:02:30;;;;;;;;;;;4.30;54.10;;;;;;4999460;28;19921;-86
2022/03/20 08:04:55;;;;;;;;;;;4.30;53.20;;;;;;5021140;28;19941;-86
2022/03/20 08:07:21;;;;;;;;;;;4.30;53.40;;;;;;5000975;28;20235;-85
2022/03/20 08:09:46;;;;;;;;;;;4.30;53.90;;;;;;4997871;28;19993;-88
2022/03/20 08:12:12;;;;;;;;;;;4.40;54.10;;;;;;5008996;28;19914;-86
2022/03/20 08:14:39;;;;;;;;;;;4.60;54.90;;;;;;5006113;28;20393;-88
2022/03/20 08:17:06;;;;;;;;;;;4.70;54.60;;;;;;5004330;28;19924;-85
2022/03/20 08:19:32;;;;;;;;;;;4.90;53.80;;;;;;5021834;28;19913;-85
2022/03/20 08:21:59;;;;;;;;;;;5.00;54.80;;;;;;5016411;28;20507;-87
2022/03/20 08:24:25;;;;;;;;;;;5.10;54.50;;;;;;5006721;28;19920;-86
2022/03/20 08:26:51;;;;;;;;;;;5.20;52.70;;;;;;5016021;28;20354;-85
2022/03/20 08:29:16;;;;;;;;;;;5.30;53.50;;;;;;5025444;28;19968;-83
2022/03/20 08:31:47;;;;;;;;;;;5.30;52.60;;;;;;5003631;28;19917;-85
2022/03/20 08:34:14;;;;;;;;;;;5.30;53.40;;;;;;5016514;28;20325;-85
2022/03/20 08:36:42;;;;;;;;;;;5.30;53.00;;;;;;5019463;28;20319;-85
2022/03/20 08:39:08;;;;;;;;;;;5.40;53.00;;;;;;5006093;28;19983;-84
2022/03/20 08:41:34;;;;;;;;;;;5.50;53.90;;;;;;4997087;28;20353;-85
2022/03/20 08:44:00;;;;;;;;;;;5.60;54.00;;;;;;5011291;28;20428;-85
2022/03/20 08:46:26;;;;;;;;;;;5.60;54.00;;;;;;4998650;28;19937;-87
2022/03/20 08:48:54;;;;;;;;;;;5.80;53.90;;;;;;4999521;28;19913;-85
2022/03/20 08:51:19;;;;;;;;;;;6.00;53.20;;;;;;5021163;28;19921;-85
2022/03/20 08:53:45;;;;;;;;;;;6.10;53.70;;;;;;5022472;28;19914;-84
2022/03/20 08:56:10;;;;;;;;;;;6.30;53.20;;;;;;5003844;28;19948;-85
2022/03/20 08:58:36;;;;;;;;;;;6.30;52.20;;;;;;5019318;28;19909;-86
2022/03/20 09:01:02;;;;;;;;;;;6.40;52.30;;;;;;5002461;28;19943;-86
2022/03/20 09:03:29;;;;;;;;;;;6.50;51.90;;;;;;5003738;28;19924;-88
2022/03/20 09:05:54;;;;;;;;;;;6.50;52.30;;;;;;5005162;28;20382;-86
2022/03/20 09:08:20;;;;;;;;;;;6.60;53.10;;;;;;5009123;28;19914;-85
2022/03/20 09:10:45;;;;;;;;;;;6.80;53.40;;;;;;5023731;28;19909;-86
2022/03/20 09:13:11;;;;;;;;;;;7.00;52.10;;;;;;5005858;28;19948;-86
2022/03/20 09:15:37;;;;;;;;;;;6.90;51.20;;;;;;5007265;28;19917;-89
2022/03/20 09:20:46;;;;;;;;;;;6.80;52.10;;;;;;5020651;28;19932;-86
2022/03/20 09:23:13;;;;;;;;;;;6.90;52.10;;;;;;5003696;28;19913;-86
2022/03/20 09:25:39;;;;;;;;;;;7.00;52.60;;;;;;5003811;28;20431;-86
2022/03/20 09:28:06;;;;;;;;;;;7.00;51.30;;;;;;5003080;28;20444;-86
2022/03/20 09:30:32;;;;;;;;;;;7.00;50.90;;;;;;5021439;28;19940;-85
2022/03/20 09:32:58;;;;;;;;;;;7.00;51.60;;;;;;5023238;28;19917;-88
2022/03/20 09:35:23;;;;;;;;;;;7.10;51.00;;;;;;5027991;28;19973;-82
2022/03/20 09:37:49;;;;;;;;;;;7.20;51.60;;;;;;5015863;28;19921;-84
2022/03/20 09:40:21;;;;;;;;;;;7.40;52.70;;;;;;5016743;28;19902;-83
2022/03/20 09:42:47;;;;;;;;;;;7.60;51.60;;;;;;5017456;28;20123;-83
2022/03/20 09:45:17;;;;;;;;;;;7.70;51.80;;;;;;5015219;28;22287;-83
2022/03/20 09:47:43;;;;;;;;;;;7.90;51.00;;;;;;5016622;28;19991;-83
2022/03/20 09:50:10;;;;;;;;;;;8.00;50.60;;;;;;5000157;28;19913;-84
2022/03/20 09:52:37;;;;;;;;;;;8.20;50.50;;;;;;4997045;28;19917;-84
2022/03/20 09:55:03;;;;;;;;;;;8.40;51.60;;;;;;4997313;28;19937;-85
2022/03/20 09:57:29;;;;;;;;;;;8.40;50.80;;;;;;5006973;28;19930;-84
2022/03/20 09:59:55;;;;;;;;;;;8.60;51.50;;;;;;5012780;28;20000;-83
2022/03/20 10:02:25;;;;;;;;;;;8.70;50.30;;;;;;5013458;28;19913;-86
2022/03/20 10:05:01;;;;;;;;;;;8.90;50.60;;;;;;5023326;28;19913;-84
2022/03/20 10:07:31;;;;;;;;;;;8.90;50.10;;;;;;5017196;28;19917;-84
2022/03/20 10:10:10;;;;;;;;;;;9.10;50.10;;;;;;5014818;28;19937;-84
2022/03/20 10:12:36;;;;;;;;;;;9.20;50.20;;;;;;5001591;28;19917;-85
2022/03/20 10:15:05;;;;;;;;;;;9.20;50.00;;;;;;4999787;28;19921;-83
2022/03/20 10:17:31;;;;;;;;;;;9.10;49.90;;;;;;4999316;28;19928;-85
2022/03/20 10:20:17;;;;;;;;;;;9.20;49.80;;;;;;5000750;28;19917;-84
2022/03/20 10:22:43;;;;;;;;;;;9.30;49.30;;;;;;5016735;28;19917;-84
2022/03/20 10:25:09;;;;;;;;;;;9.20;49.00;;;;;;4998676;28;19928;-85
2022/03/20 10:27:35;;;;;;;;;;;9.30;50.20;;;;;;5014146;28;19956;-84
2022/03/20 10:30:01;;;;;;;;;;;9.40;49.90;;;;;;5002714;28;19913;-84
2022/03/20 10:32:27;;;;;;;;;;;9.60;51.50;;;;;;5022009;28;19913;-84
2022/03/20 10:34:56;;;;;;;;;;;9.60;50.50;;;;;;5006058;28;20381;-84
2022/03/20 10:37:43;;;;;;;;;;;9.90;50.20;;;;;;5005795;28;19949;-86
2022/03/20 10:40:14;;;;;;;;;;;10.00;49.00;;;;;;5022824;28;19914;-85
2022/03/20 10:42:39;;;;;;;;;;;10.10;48.80;;;;;;5005836;28;19909;-82
2022/03/20 10:45:06;;;;;;;;;;;10.20;49.40;;;;;;5002700;28;19971;-81
2022/03/20 10:47:32;;;;;;;;;;;10.50;50.20;;;;;;5025634;28;19940;-81
2022/03/20 10:50:02;;;;;;;;;;;10.60;46.70;;;;;;5015075;28;19983;-82
2022/03/20 10:52:29;;;;;;;;;;;10.80;47.10;;;;;;5011921;28;19925;-82
2022/03/20 10:54:55;;;;;;;;;;;10.70;46.40;;;;;;5013154;28;19917;-83
2022/03/20 10:57:21;;;;;;;;;;;10.80;47.60;;;;;;5009035;28;19921;-81
2022/03/20 10:59:57;;;;;;;;;;;10.80;47.10;;;;;;4998438;28;19921;-80
2022/03/20 11:02:23;;;;;;;;;;;10.80;47.50;;;;;;5011195;28;19920;-81
2022/03/20 11:04:50;;;;;;;;;;;11.00;46.40;;;;;;4994842;28;19918;-83
2022/03/20 11:07:19;;;;;;;;;;;11.00;46.60;;;;;;4994009;28;19914;-89
2022/03/20 11:09:46;;;;;;;;;;;11.10;46.20;;;;;;5015313;28;19913;-87
2022/03/20 11:12:14;;;;;;;;;;;11.00;46.00;;;;;;5010377;28;19976;-85
2022/03/20 11:14:42;;;;;;;;;;;11.20;46.40;;;;;;4995692;28;19910;-84
2022/03/20 11:17:08;;;;;;;;;;;11.30;46.10;;;;;;4996493;28;19918;-82
2022/03/20 11:19:35;;;;;;;;;;;11.40;45.60;;;;;;5006842;28;19973;-81
2022/03/20 11:22:10;;;;;;;;;;;11.60;45.00;;;;;;5017201;28;19917;-81
2022/03/20 11:24:39;;;;;;;;;;;11.60;45.20;;;;;;5033829;28;19902;-82
2022/03/20 11:27:06;;;;;;;;;;;11.80;45.00;;;;;;5013750;28;19953;-83
2022/03/20 11:29:39;;;;;;;;;;;11.80;45.10;;;;;;5007869;28;19913;-80
2022/03/20 11:32:08;;;;;;;;;;;12.00;44.10;;;;;;4994591;28;20244;-79
2022/03/20 11:34:33;;;;;;;;;;;12.20;44.40;;;;;;5000146;28;19949;-82
2022/03/20 11:37:00;;;;;;;;;;;12.20;44.00;;;;;;4997779;28;19976;-81
2022/03/20 11:39:26;;;;;;;;;;;12.50;43.70;;;;;;4994238;28;20001;-82
2022/03/20 11:42:15;;;;;;;;;;;12.30;44.40;;;;;;4997172;28;19952;-82
2022/03/20 11:44:50;;;;;;;;;;;12.30;45.00;;;;;;4992310;28;19914;-81
2022/03/20 11:47:15;;;;;;;;;;;12.10;45.10;;;;;;4996297;28;20377;-80
2022/03/20 11:49:41;;;;;;;;;;;12.10;45.50;;;;;;4999759;28;19913;-80
2022/03/20 11:52:11;;;;;;;;;;;12.20;44.90;;;;;;5004108;28;19921;-80
2022/03/20 11:54:40;;;;;;;;;;;12.50;44.30;;;;;;5000820;28;20267;-81
2022/03/20 11:57:24;;;;;;;;;;;12.50;45.30;;;;;;5018223;28;19921;-81
2022/03/20 11:59:51;;;;;;;;;;;12.80;45.10;;;;;;5032927;28;19971;-80
2022/03/20 12:02:17;;;;;;;;;;;12.80;45.00;;;;;;5017446;28;19913;-80
2022/03/20 12:05:02;;;;;;;;;;;12.60;45.00;;;;;;4997688;28;19941;-79
2022/03/20 12:07:40;;;;;;;;;;;12.90;44.80;;;;;;5003117;28;19913;-80
2022/03/20 12:10:06;;;;;;;;;;;12.70;45.40;;;;;;4999435;28;19914;-79
2022/03/20 12:12:31;;;;;;;;;;;12.70;46.20;;;;;;5003404;28;19977;-79
2022/03/20 12:15:03;;;;;;;;;;;12.70;45.90;;;;;;5015341;28;20032;-80
2022/03/20 12:17:48;;;;;;;;;;;12.90;46.00;;;;;;4992806;28;19918;-80
2022/03/20 12:20:34;;;;;;;;;;;13.00;46.00;;;;;;5005428;28;19913;-80
2022/03/20 12:23:18;;;;;;;;;;;13.10;45.50;;;;;;5020189;28;19921;-79
2022/03/20 12:25:43;;;;;;;;;;;13.30;46.50;;;;;;4995494;28;19941;-79
2022/03/20 12:28:27;;;;;;;;;;;13.60;45.20;;;;;;5011231;28;19964;-78
2022/03/20 12:30:52;;;;;;;;;;;13.60;44.40;;;;;;5011048;28;19956;-79
2022/03/20 12:33:22;;;;;;;;;;;13.40;45.70;;;;;;5005657;28;19961;-80
2022/03/20 12:35:48;;;;;;;;;;;13.70;45.50;;;;;;4998684;28;19929;-81
2022/03/20 12:38:49;;;;;;;;;;;13.70;45.50;;;;;;5015618;28;19932;-81
2022/03/20 12:41:16;;;;;;;;;;;13.60;45.70;;;;;;4899348;29;20431;-80
2022/03/20 12:43:43;;;;;;;;;;;13.60;45.40;;;;;;4974688;28;19957;-81
2022/03/20 12:46:09;;;;;;;;;;;13.50;45.80;;;;;;5019956;28;20270;-79
2022/03/20 12:48:35;;;;;;;;;;;13.60;45.70;;;;;;5009984;28;19956;-80
2022/03/20 12:51:11;;;;;;;;;;;13.60;45.90;;;;;;5004478;28;19918;-78
2022/03/20 12:53:41;;;;;;;;;;;13.60;45.80;;;;;;5012731;28;19913;-78
2022/03/20 12:56:29;;;;;;;;;;;13.90;46.00;;;;;;5008986;28;19945;-79
2022/03/20 12:58:53;;;;;;;;;;;13.80;46.10;;;;;;5031008;28;19947;-79
2022/03/20 13:01:19;;;;;;;;;;;13.80;45.80;;;;;;4999286;28;19921;-79
2022/03/20 13:03:45;;;;;;;;;;;13.60;46.70;;;;;;5012083;28;20000;-81
2022/03/20 13:06:10;;;;;;;;;;;13.40;47.30;;;;;;4997023;28;19917;-79
2022/03/20 13:08:37;;;;;;;;;;;13.30;48.20;;;;;;5006296;28;19921;-77
2022/03/20 13:11:48;;;;;;;;;;;13.30;48.60;;;;;;5014350;28;19943;-79
2022/03/20 13:13:51;;;;;;;;;;;13.30;48.80;;;;;;5009152;28;19913;-79
2022/03/20 13:16:17;;;;;;;;;;;13.40;48.30;;;;;;4988940;28;19924;-80
2022/03/20 13:18:45;;;;;;;;;;;13.30;48.20;;;;;;4991085;28;19925;-78
2022/03/20 13:21:11;;;;;;;;;;;13.50;48.20;;;;;;4994656;28;19922;-79
2022/03/20 13:23:36;;;;;;;;;;;13.50;48.60;;;;;;4995126;28;19925;-78
2022/03/20 13:26:02;;;;;;;;;;;13.90;48.10;;;;;;5008915;28;19918;-79
2022/03/20 13:28:28;;;;;;;;;;;14.30;47.70;;;;;;5008998;28;19917;-81
2022/03/20 13:31:10;;;;;;;;;;;14.50;46.50;;;;;;4990447;28;19924;-79
2022/03/20 13:33:37;;;;;;;;;;;14.60;46.40;;;;;;4987316;28;19975;-80
2022/03/20 13:36:09;;;;;;;;;;;14.90;45.00;;;;;;4991634;28;19926;-78
2022/03/20 13:38:40;;;;;;;;;;;14.60;46.20;;;;;;5008346;28;19932;-81
2022/03/20 13:41:07;;;;;;;;;;;14.60;45.40;;;;;;4986987;28;20021;-79
2022/03/20 13:43:34;;;;;;;;;;;14.50;46.60;;;;;;5009561;28;20397;-79
2022/03/20 13:46:10;;;;;;;;;;;14.90;45.40;;;;;;4994059;28;19917;-79
2022/03/20 13:48:36;;;;;;;;;;;14.90;45.40;;;;;;5021940;23;20492;-79
2022/03/20 13:51:04;;;;;;;;;;;14.70;45.10;;;;;;4996376;28;19934;-79
2022/03/20 13:53:30;;;;;;;;;;;14.60;45.50;;;;;;5008507;28;19924;-77
2022/03/20 13:55:56;;;;;;;;;;;14.50;46.70;;;;;;5011564;28;20035;-76
2022/03/20 13:58:21;;;;;;;;;;;14.20;47.70;;;;;;5011684;28;19970;-79
2022/03/20 14:00:49;;;;;;;;;;;13.90;47.80;;;;;;5012034;28;19978;-78
2022/03/20 14:03:27;;;;;;;;;;;14.00;47.80;;;;;;5010217;28;20086;-81
2022/03/20 14:05:53;;;;;;;;;;;13.90;48.60;;;;;;5002065;28;19921;-81
2022/03/20 14:08:22;;;;;;;;;;;13.80;48.10;;;;;;5015195;28;19952;-80
2022/03/20 14:10:57;;;;;;;;;;;14.00;48.60;;;;;;4988814;28;20225;-82
2022/03/20 14:13:36;;;;;;;;;;;14.10;47.90;;;;;;4996497;28;20331;-84
2022/03/20 14:16:53;;;;;;;;;;;13.90;48.50;;;;;;4998789;28;20002;-83
2022/03/20 14:19:22;;;;;;;;;;;13.90;49.00;;;;;;5028116;28;19913;-86
2022/03/20 14:22:04;;;;;;;;;;;13.90;49.00;;;;;;5040145;28;19990;-87
2022/03/20 14:24:57;;;;;;;;;;;;;;;;;;;;;
2022/03/20 14:27:29;;;;;;;;;;;13.70;49.60;;;;;;5044762;28;19920;-87
2022/03/20 14:41:54;;;;;;;;;;;13.50;52.60;;;;;;5003891;28;19916;-80
2022/03/20 14:44:21;;;;;;;;;;;13.50;55.00;;;;;;5016083;28;19908;-80
2022/03/20 14:46:53;;;;;;;;;;;13.60;55.80;;;;;;5014814;28;19909;-82
2022/03/20 14:49:20;;;;;;;;;;;13.50;56.90;;;;;;5011747;28;20457;-80
2022/03/20 14:51:46;;;;;;;;;;;13.60;55.40;;;;;;4996050;28;20329;-85
2022/03/20 14:54:12;;;;;;;;;;;13.50;55.70;;;;;;5014612;28;20805;-83
2022/03/20 14:56:39;;;;;;;;;;;13.30;55.70;;;;;;4991527;28;19924;-83
2022/03/20 14:59:08;;;;;;;;;;;13.40;54.50;;;;;;5001720;28;20074;-83
2022/03/20 15:01:37;;;;;;;;;;;13.40;54.90;;;;;;5017022;28;20468;-84
2022/03/20 15:04:02;;;;;;;;;;;13.30;54.60;;;;;;5015659;28;20039;-82
2022/03/20 15:06:28;;;;;;;;;;;13.20;55.20;;;;;;5001705;28;20284;-85
2022/03/20 15:11:39;;;;;;;;;;;13.10;55.70;;;;;;5021680;28;19927;-83
2022/03/20 15:14:05;;;;;;;;;;;13.00;56.40;;;;;;5018735;28;20030;-85
2022/03/20 15:16:31;;;;;;;;;;;13.00;57.00;;;;;;5030528;28;20074;-84
2022/03/20 15:18:57;;;;;;;;;;;13.00;57.70;;;;;;5037026;28;20171;-84
2022/03/20 15:21:23;;;;;;;;;;;12.90;58.10;;;;;;5041180;28;20411;-83